createdAt,value
2023-01-07T00:01:29.641Z,75.59
2023-01-07T00:05:13.682Z,75.61
2023-01-07T00:08:58.091Z,75.57
2023-01-07T00:12:40.806Z,75.25
2023-01-07T00:16:25.326Z,75.29
2023-01-07T00:20:08.577Z,75.49
2023-01-07T00:23:55.290Z,75.29
2023-01-07T00:27:38.025Z,76.28
2023-01-07T00:31:23.427Z,76.89
2023-01-07T00:35:21.458Z,75.47
2023-01-07T00:39:07.024Z,74.92
2023-01-07T00:42:58.143Z,74.96
2023-01-07T00:46:40.890Z,74.83
2023-01-07T00:50:25.662Z,74.63
2023-01-07T00:54:09.741Z,74.86
2023-01-07T00:57:52.871Z,75.33
2023-01-07T01:01:35.791Z,75.22
2023-01-07T01:05:19.310Z,74.94
2023-01-07T01:09:01.987Z,74.56
2023-01-07T01:12:49.840Z,74.23
2023-01-07T01:16:35.101Z,73.92
2023-01-07T01:20:17.926Z,73.74
2023-01-07T01:24:00.628Z,74.16
2023-01-07T01:27:44.088Z,74.11
2023-01-07T01:31:28.330Z,73.60
2023-01-07T01:35:11.085Z,73.33
2023-01-07T01:38:53.966Z,73.28
2023-01-07T01:42:36.627Z,73.72
2023-01-07T01:46:29.573Z,73.68
2023-01-07T01:50:18.583Z,73.95
2023-01-07T01:54:04.542Z,73.69
2023-01-07T01:57:49.980Z,74.12
2023-01-07T02:01:35.056Z,73.69
2023-01-07T02:05:18.280Z,73.72
2023-01-07T02:09:01.082Z,74.29
2023-01-07T02:13:12.323Z,74.45
2023-01-07T02:17:13.398Z,73.99
2023-01-07T02:21:03.698Z,73.94
2023-01-07T02:25:00.769Z,73.64
2023-01-07T02:29:03.975Z,73.37
2023-01-07T02:33:05.852Z,73.66
2023-01-07T02:36:52.367Z,73.35
2023-01-07T02:40:40.523Z,73.33
2023-01-07T02:44:28.646Z,73.46
2023-01-07T02:48:17.060Z,73.12
2023-01-07T02:52:16.077Z,73.37
2023-01-07T02:56:10.342Z,73.41
2023-01-07T03:00:14.032Z,73.65
2023-01-07T03:04:16.154Z,73.54
2023-01-07T03:08:10.924Z,73.06
2023-01-07T03:11:59.129Z,73.12
2023-01-07T03:15:45.246Z,72.59
2023-01-07T03:19:31.588Z,72.29
2023-01-07T03:23:16.289Z,72.07
2023-01-07T03:27:00.347Z,71.93
2023-01-07T03:30:43.297Z,72.07
2023-01-07T03:34:29.827Z,72.24
2023-01-07T03:38:14.452Z,71.86
2023-01-07T03:42:14.817Z,72.42
2023-01-07T03:45:59.097Z,72.45
2023-01-07T03:49:42.095Z,72.32
2023-01-07T03:53:26.119Z,72.35
2023-01-07T03:57:08.973Z,72.31
2023-01-07T04:00:51.744Z,71.76
2023-01-07T04:04:38.521Z,72.33
2023-01-07T04:08:21.265Z,72.18
2023-01-07T04:12:05.380Z,71.97
2023-01-07T04:15:48.058Z,71.64
2023-01-07T04:19:30.761Z,72.03
2023-01-07T04:23:13.416Z,72.53
2023-01-07T04:26:58.497Z,72.82
2023-01-07T04:30:42.670Z,72.16
2023-01-07T04:34:25.620Z,71.90
2023-01-07T04:38:08.422Z,71.57
2023-01-07T04:41:51.192Z,71.34
2023-01-07T04:45:36.300Z,71.74
2023-01-07T04:49:20.365Z,71.63
2023-01-07T04:53:03.000Z,72.08
2023-01-07T04:56:46.627Z,72.07
2023-01-07T05:00:29.249Z,71.69
2023-01-07T05:04:12.003Z,72.14
2023-01-07T05:07:56.103Z,72.53
2023-01-07T05:11:38.792Z,72.70
2023-01-07T05:15:21.528Z,72.83
2023-01-07T05:19:04.539Z,73.09
2023-01-07T05:22:47.720Z,72.88
2023-01-07T05:26:32.622Z,73.34
2023-01-07T05:30:18.091Z,73.30
2023-01-07T05:34:00.790Z,73.39
2023-01-07T05:37:43.570Z,74.10
2023-01-07T05:41:26.321Z,73.89
2023-01-07T05:45:11.377Z,74.27
2023-01-07T05:48:54.636Z,74.46
2023-01-07T05:52:37.392Z,74.87
2023-01-07T05:56:20.115Z,75.21
2023-01-07T06:00:03.112Z,75.51
2023-01-07T06:03:47.177Z,75.44
2023-01-07T06:07:29.893Z,75.87
2023-01-07T06:11:12.714Z,75.97
2023-01-07T06:14:55.377Z,75.88
2023-01-07T06:18:38.197Z,76.43
2023-01-07T06:22:24.090Z,76.95
2023-01-07T06:26:06.744Z,77.10
2023-01-07T06:29:49.583Z,76.98
2023-01-07T06:33:33.608Z,77.59
2023-01-07T06:37:17.969Z,77.52
2023-01-07T06:41:02.508Z,77.42
2023-01-07T06:44:45.212Z,77.76
2023-01-07T06:48:30.511Z,78.35
2023-01-07T06:52:13.272Z,77.95
2023-01-07T06:55:55.958Z,78.35
2023-01-07T06:59:39.998Z,78.29
2023-01-07T07:03:22.678Z,78.42
2023-01-07T07:07:05.388Z,78.34
2023-01-07T07:10:48.091Z,78.73
2023-01-07T07:14:30.774Z,79.20
2023-01-07T07:18:14.803Z,78.52
2023-01-07T07:21:57.653Z,78.82
2023-01-07T07:25:40.705Z,78.88
2023-01-07T07:29:23.417Z,79.25
2023-01-07T07:33:06.518Z,79.42
2023-01-07T07:36:50.614Z,79.57
2023-01-07T07:40:33.268Z,79.50
2023-01-07T07:44:16.160Z,79.57
2023-01-07T07:47:58.868Z,79.39
2023-01-07T07:51:41.528Z,79.54
2023-01-07T07:55:26.589Z,79.33
2023-01-07T07:59:09.720Z,79.13
2023-01-07T08:02:52.432Z,79.60
2023-01-07T08:06:35.331Z,79.26
2023-01-07T08:10:18.239Z,78.99
2023-01-07T08:14:02.450Z,78.70
2023-01-07T08:17:45.395Z,78.87
2023-01-07T08:21:28.056Z,78.62
2023-01-07T08:25:13.247Z,78.63
2023-01-07T08:28:55.955Z,78.18
2023-01-07T08:32:42.744Z,77.82
2023-01-07T08:36:25.462Z,78.11
2023-01-07T08:40:09.083Z,78.51
2023-01-07T08:43:52.173Z,77.39
2023-01-07T08:47:37.058Z,77.26
2023-01-07T08:51:21.132Z,77.86
2023-01-07T08:55:03.934Z,76.83
2023-01-07T08:58:46.616Z,75.90
2023-01-07T09:02:29.460Z,75.74
2023-01-07T09:06:12.889Z,75.54
2023-01-07T09:09:56.861Z,74.87
2023-01-07T09:13:39.616Z,74.31
2023-01-07T09:17:24.154Z,73.52
2023-01-07T09:21:07.392Z,72.52
2023-01-07T09:24:50.071Z,72.57
2023-01-07T09:28:34.430Z,72.69
2023-01-07T09:32:17.098Z,72.16
2023-01-07T09:35:59.845Z,71.92
2023-01-07T09:39:42.708Z,72.15
2023-01-07T09:43:59.692Z,71.65
2023-01-07T09:47:34.823Z,71.47
2023-01-07T09:51:23.655Z,71.17
2023-01-07T09:55:09.992Z,71.36
2023-01-07T09:58:52.821Z,70.77
2023-01-07T10:02:45.033Z,70.66
2023-01-07T10:06:43.024Z,69.95
2023-01-07T10:10:32.940Z,69.81
2023-01-07T10:14:43.799Z,70.37
2023-01-07T10:18:37.210Z,69.80
2023-01-07T10:22:25.214Z,70.01
2023-01-07T10:26:16.980Z,69.76
2023-01-07T10:30:03.218Z,69.12
2023-01-07T10:33:48.674Z,68.45
2023-01-07T10:37:33.640Z,68.02
2023-01-07T10:41:22.664Z,67.57
2023-01-07T10:45:34.075Z,67.54
2023-01-07T10:49:33.216Z,94.22
2023-01-07T10:53:29.717Z,62.09
2023-01-07T10:57:16.215Z,61.08
2023-01-07T11:00:59.273Z,61.49
2023-01-07T11:04:43.400Z,62.71
2023-01-07T11:08:31.220Z,63.51
2023-01-07T11:12:25.290Z,63.88
2023-01-07T11:16:11.795Z,62.88
2023-01-07T11:19:56.455Z,64.39
2023-01-07T11:23:42.796Z,63.68
2023-01-07T11:27:31.235Z,63.67
2023-01-07T11:31:13.895Z,63.36
2023-01-07T11:35:00.853Z,64.29
2023-01-07T11:38:43.813Z,63.28
2023-01-07T11:42:41.723Z,63.65
2023-01-07T11:46:26.909Z,62.54
2023-01-07T11:50:22.333Z,62.17
2023-01-07T11:54:05.195Z,61.80
2023-01-07T11:58:03.490Z,60.96
2023-01-07T12:01:59.270Z,61.63
2023-01-07T12:05:45.353Z,61.78
2023-01-07T12:09:34.480Z,61.25
2023-01-07T12:13:21.139Z,60.11
2023-01-07T12:17:12.059Z,58.87
2023-01-07T12:21:16.431Z,59.50
2023-01-07T12:25:20.043Z,57.30
2023-01-07T12:29:11.383Z,56.92
2023-01-07T12:33:02.840Z,56.64
2023-01-07T12:36:50.602Z,57.27
2023-01-07T12:40:36.532Z,56.17
2023-01-07T12:44:21.603Z,55.02
2023-01-07T12:48:07.438Z,54.91
2023-01-07T12:51:56.605Z,55.07
2023-01-07T12:55:46.171Z,53.83
2023-01-07T12:59:46.064Z,54.11
2023-01-07T13:03:39.158Z,53.53
2023-01-07T13:07:26.529Z,52.98
2023-01-07T13:11:20.583Z,52.00
2023-01-07T13:15:05.097Z,51.57
2023-01-07T13:18:47.782Z,51.92
2023-01-07T13:22:35.205Z,51.27
2023-01-07T13:26:29.527Z,49.60
2023-01-07T13:30:24.170Z,49.52
2023-01-07T13:34:20.635Z,49.12
2023-01-07T13:38:15.427Z,48.38
2023-01-07T13:42:07.977Z,48.04
2023-01-07T13:45:56.532Z,49.11
2023-01-07T13:49:39.583Z,49.26
2023-01-07T13:53:50.122Z,49.31
2023-01-07T13:57:46.001Z,47.45
2023-01-07T14:01:29.720Z,47.22
2023-01-07T14:05:25.543Z,47.56
2023-01-07T14:09:32.365Z,46.66
2023-01-07T14:13:27.263Z,47.06
2023-01-07T14:17:16.122Z,46.79
2023-01-07T14:21:08.095Z,46.92
2023-01-07T14:25:14.275Z,48.76
2023-01-07T14:29:10.690Z,46.74
2023-01-07T14:32:58.229Z,46.32
2023-01-07T14:37:11.631Z,46.38
2023-01-07T14:41:09.535Z,48.03
2023-01-07T14:44:52.537Z,48.11
2023-01-07T14:48:37.039Z,46.81
2023-01-07T14:52:44.653Z,47.14
2023-01-07T14:56:36.348Z,48.08
2023-01-07T15:00:38.819Z,47.82
2023-01-07T15:04:52.492Z,46.99
2023-01-07T15:09:02.480Z,49.23
2023-01-07T15:13:05.781Z,50.11
2023-01-07T15:16:50.707Z,49.00
2023-01-07T15:20:42.745Z,49.34
2023-01-07T15:24:32.472Z,49.93
2023-01-07T15:28:22.372Z,50.17
2023-01-07T15:32:09.883Z,54.08
2023-01-07T15:35:52.824Z,53.95
2023-01-07T15:39:40.266Z,54.89
2023-01-07T15:43:28.528Z,53.50
2023-01-07T15:47:36.541Z,54.80
2023-01-07T15:51:19.765Z,55.49
2023-01-07T15:55:15.019Z,56.25
2023-01-07T15:58:59.128Z,57.32
2023-01-07T16:02:43.509Z,59.60
2023-01-07T16:06:33.544Z,59.48
2023-01-07T16:10:20.700Z,61.03
2023-01-07T16:14:12.504Z,62.78
2023-01-07T16:17:56.786Z,63.40
2023-01-07T16:21:42.446Z,63.99
2023-01-07T16:25:32.470Z,62.60
2023-01-07T16:29:18.548Z,64.13
2023-01-07T16:33:01.496Z,64.43
2023-01-07T16:36:45.191Z,65.36
2023-01-07T16:40:34.448Z,64.54
2023-01-07T16:44:58.693Z,67.83
2023-01-07T16:48:41.367Z,69.55
2023-01-07T16:52:27.739Z,69.36
2023-01-07T16:56:15.205Z,83.31
2023-01-07T17:00:01.663Z,64.91
2023-01-07T17:03:48.720Z,62.01
2023-01-07T17:07:31.569Z,60.79
2023-01-07T17:11:21.441Z,62.05
2023-01-07T17:15:33.474Z,62.79
2023-01-07T17:19:24.412Z,63.44
2023-01-07T17:23:32.312Z,65.77
2023-01-07T17:27:22.609Z,66.43
2023-01-07T17:31:07.346Z,66.63
2023-01-07T17:34:50.072Z,67.28
2023-01-07T17:38:32.965Z,67.96
2023-01-07T17:42:39.480Z,68.52
2023-01-07T17:46:24.166Z,69.60
2023-01-07T17:50:07.648Z,69.61
2023-01-07T17:53:51.862Z,70.71
2023-01-07T17:57:34.544Z,70.48
2023-01-07T18:01:20.053Z,69.99
2023-01-07T18:05:04.508Z,69.67
2023-01-07T18:08:47.666Z,70.84
2023-01-07T18:12:34.611Z,70.43
2023-01-07T18:16:17.435Z,70.27
2023-01-07T18:20:00.162Z,70.79
2023-01-07T18:23:45.854Z,70.75
2023-01-07T18:27:28.549Z,71.62
2023-01-07T18:31:11.471Z,72.22
2023-01-07T18:34:54.223Z,72.43
2023-01-07T18:38:36.912Z,72.60
2023-01-07T18:42:21.011Z,71.66
2023-01-07T18:46:08.355Z,71.66
2023-01-07T18:49:51.119Z,72.25
2023-01-07T18:53:33.838Z,72.49
2023-01-07T18:57:16.582Z,72.67
2023-01-07T19:01:04.754Z,72.14
2023-01-07T19:04:48.031Z,72.77
2023-01-07T19:08:31.343Z,73.19
2023-01-07T19:12:14.552Z,73.31
2023-01-07T19:15:57.210Z,73.63
2023-01-07T19:19:48.468Z,72.21
2023-01-07T19:23:31.684Z,72.85
2023-01-07T19:27:14.389Z,72.49
2023-01-07T19:30:57.086Z,72.38
2023-01-07T19:34:41.154Z,72.69
2023-01-07T19:38:23.912Z,73.71
2023-01-07T19:42:07.044Z,73.63
2023-01-07T19:45:56.192Z,73.75
2023-01-07T19:49:38.993Z,74.79
2023-01-07T19:53:23.448Z,74.51
2023-01-07T19:57:06.169Z,74.37
2023-01-07T20:00:48.883Z,75.03
2023-01-07T20:04:31.739Z,74.57
2023-01-07T20:08:14.414Z,74.08
2023-01-07T20:11:58.467Z,74.48
2023-01-07T20:15:41.121Z,74.41
2023-01-07T20:19:24.268Z,74.10
2023-01-07T20:23:06.909Z,74.09
2023-01-07T20:26:49.624Z,73.90
2023-01-07T20:30:33.922Z,74.62
2023-01-07T20:34:16.638Z,74.75
2023-01-07T20:37:59.377Z,75.06
2023-01-07T20:41:45.144Z,73.77
2023-01-07T20:45:27.816Z,73.82
2023-01-07T20:49:13.331Z,73.56
2023-01-07T20:52:56.001Z,74.11
2023-01-07T20:56:38.770Z,73.85
2023-01-07T21:00:21.465Z,73.92
2023-01-07T21:04:04.255Z,73.98
2023-01-07T21:07:48.334Z,73.64
2023-01-07T21:11:31.030Z,74.07
2023-01-07T21:15:15.755Z,74.97
2023-01-07T21:18:58.526Z,74.24
2023-01-07T21:22:41.558Z,73.92
2023-01-07T21:26:26.173Z,73.42
2023-01-07T21:30:14.278Z,73.52
2023-01-07T21:33:58.182Z,73.46
2023-01-07T21:37:40.870Z,73.48
2023-01-07T21:41:25.733Z,72.87
2023-01-07T21:45:09.355Z,72.55
2023-01-07T21:48:52.940Z,72.82
2023-01-07T21:52:35.746Z,72.94
2023-01-07T21:56:19.035Z,72.15
2023-01-07T22:00:03.305Z,71.03
2023-01-07T22:03:48.249Z,71.49
2023-01-07T22:07:30.986Z,71.29
2023-01-07T22:11:14.336Z,71.78
2023-01-07T22:14:57.111Z,72.35
2023-01-07T22:18:41.228Z,71.60
2023-01-07T22:22:23.938Z,70.94
2023-01-07T22:26:07.998Z,71.37
2023-01-07T22:29:50.692Z,71.88
2023-01-07T22:33:36.440Z,70.29
2023-01-07T22:37:23.894Z,70.68
2023-01-07T22:41:10.367Z,70.16
2023-01-07T22:44:58.936Z,69.73
2023-01-07T22:48:41.696Z,69.36
2023-01-07T22:52:25.714Z,68.96
2023-01-07T22:56:08.853Z,69.68
2023-01-07T22:59:51.586Z,69.28
2023-01-07T23:03:34.638Z,69.69
2023-01-07T23:07:17.419Z,69.89
2023-01-07T23:11:01.464Z,69.96
2023-01-07T23:14:44.191Z,69.85
2023-01-07T23:18:26.871Z,71.44
2023-01-07T23:22:09.537Z,70.39
2023-01-07T23:25:52.646Z,70.56
2023-01-07T23:29:36.849Z,70.70
2023-01-07T23:33:19.592Z,70.53
2023-01-07T23:37:02.324Z,71.43
2023-01-07T23:40:45.970Z,71.37
2023-01-07T23:44:28.655Z,72.30
2023-01-07T23:48:12.711Z,71.64
2023-01-07T23:51:55.373Z,72.16
2023-01-07T23:55:39.192Z,72.70
2023-01-07T23:59:22.007Z,72.42
